Map

Track Data

SID SEASON NUMBER BASIN SUBBASIN NAME ISO_TIME NATURE LAT LON WMO_WIND WMO_PRES WMO_AGENCY TRACK_TYPE DIST2LAND LANDFALL IFLAG USA_AGENCY USA_ATCF_ID USA_LAT USA_LON USA_RECORD USA_STATUS USA_WIND USA_PRES USA_SSHS USA_R34_NE USA_R34_SE USA_R34_SW USA_R34_NW USA_R50_NE USA_R50_SE USA_R50_SW USA_R50_NW USA_R64_NE USA_R64_SE USA_R64_SW USA_R64_NW USA_POCI USA_ROCI USA_RMW USA_EYE TOKYO_LAT TOKYO_LON TOKYO_GRADE TOKYO_WIND TOKYO_PRES TOKYO_R50_DIR TOKYO_R50_LONG TOKYO_R50_SHORT TOKYO_R30_DIR TOKYO_R30_LONG TOKYO_R30_SHORT TOKYO_LAND CMA_LAT CMA_LON CMA_CAT CMA_WIND CMA_PRES HKO_LAT HKO_LON HKO_CAT HKO_WIND HKO_PRES NEWDELHI_LAT NEWDELHI_LON NEWDELHI_GRADE NEWDELHI_WIND NEWDELHI_PRES NEWDELHI_CI NEWDELHI_DP NEWDELHI_POCI REUNION_LAT REUNION_LON REUNION_TYPE REUNION_WIND REUNION_PRES REUNION_TNUM REUNION_CI REUNION_RMW REUNION_R34_NE REUNION_R34_SE REUNION_R34_SW REUNION_R34_NW REUNION_R50_NE REUNION_R50_SE REUNION_R50_SW REUNION_R50_NW REUNION_R64_NE REUNION_R64_SE REUNION_R64_SW REUNION_R64_NW BOM_LAT BOM_LON BOM_TYPE BOM_WIND BOM_PRES BOM_TNUM BOM_CI BOM_RMW BOM_R34_NE BOM_R34_SE BOM_R34_SW BOM_R34_NW BOM_R50_NE BOM_R50_SE BOM_R50_SW BOM_R50_NW BOM_R64_NE BOM_R64_SE BOM_R64_SW BOM_R64_NW BOM_ROCI BOM_POCI BOM_EYE BOM_POS_METHOD BOM_PRES_METHOD NADI_LAT NADI_LON NADI_CAT NADI_WIND NADI_PRES WELLINGTON_LAT WELLINGTON_LON WELLINGTON_WIND WELLINGTON_PRES DS824_LAT DS824_LON DS824_STAGE DS824_WIND DS824_PRES TD9636_LAT TD9636_LON TD9636_STAGE TD9636_WIND TD9636_PRES TD9635_LAT TD9635_LON TD9635_WIND TD9635_PRES TD9635_ROCI NEUMANN_LAT NEUMANN_LON NEUMANN_CLASS NEUMANN_WIND NEUMANN_PRES MLC_LAT MLC_LON MLC_CLASS MLC_WIND MLC_PRES USA_GUST BOM_GUST BOM_GUST_PER REUNION_GUST REUNION_GUST_PER USA_SEAHGT USA_SEARAD_NE USA_SEARAD_SE USA_SEARAD_SW USA_SEARAD_NW STORM_SPEED STORM_DIR
1908214S30142 1909 28 SP EA NOT_NAMED 1908-07-31 12:00:00 NR -30.0000 142.300 main 0 0 __________O___ -1 -30.0000 142.300 7 1 308
1908214S30142 1909 28 SP EA NOT_NAMED 1908-07-31 15:00:00 NR -29.9576 142.239 main 0 0 __________P___ -1 -29.9576 142.239 7 1 295
1908214S30142 1909 28 SP EA NOT_NAMED 1908-07-31 18:00:00 NR -29.9622 142.212 main 0 0 __________P___ -1 -29.9622 142.212 7 1 170
1908214S30142 1909 28 SP EA NOT_NAMED 1908-07-31 21:00:00 NR -30.0607 142.254 main 0 0 __________P___ -1 -30.0607 142.254 7 4 154
1908214S30142 1909 28 SP EA NOT_NAMED 1908-08-01 00:00:00 NR -30.3000 142.400 main 0 0 __________O___ -1 -30.3000 142.400 7 7 151
1908214S30142 1909 28 SP EA NOT_NAMED 1908-08-01 03:00:00 NR -30.7065 142.674 main 0 0 __________P___ -1 -30.7065 142.674 7 11 149
1908214S30142 1909 28 SP EA NOT_NAMED 1908-08-01 06:00:00 NR -31.2254 143.054 main 0 0 __________P___ -1 -31.2254 143.054 7 13 146
1908214S30142 1909 28 SP EA NOT_NAMED 1908-08-01 09:00:00 NR -31.7814 143.508 main 0 0 __________P___ -1 -31.7814 143.508 7 13 143
1908214S30142 1909 28 SP EA NOT_NAMED 1908-08-01 12:00:00 NR -32.3000 144.000 main 0 0 __________O___ -1 -32.3000 144.000 7 12 140
1908214S30142 1909 28 SP EA NOT_NAMED 1908-08-01 15:00:00 NR -32.7025 144.436 main 0 0 __________P___ -1 -32.7025 144.436 7 11 135
1908214S30142 1909 28 SP EA NOT_NAMED 1908-08-01 18:00:00 NR -33.0529 144.904 main 0 0 __________P___ -1 -33.0529 144.904 7 11 128
1908214S30142 1909 28 SP EA NOT_NAMED 1908-08-01 21:00:00 NR -33.3520 145.420 main 0 0 __________P___ -1 -33.3520 145.420 7 11 121
1908214S30142 1909 28 SP EA NOT_NAMED 1908-08-02 00:00:00 NR -33.6000 146.000 main 0 0 __________O___ -1 -33.6000 146.000 7 11 115
1908214S30142 1909 28 SP EA NOT_NAMED 1908-08-02 03:00:00 NR -33.8324 146.644 main 0 0 __________P___ -1 -33.8324 146.644 7 12 110
1908214S30142 1909 28 SP EA NOT_NAMED 1908-08-02 06:00:00 NR -34.0117 147.352 main 0 0 __________P___ -1 -34.0117 147.352 7 13 104
1908214S30142 1909 28 SP EA NOT_NAMED 1908-08-02 09:00:00 NR -34.1351 148.109 main 0 0 __________P___ -1 -34.1351 148.109 7 13 98
1908214S30142 1909 28 SP EA NOT_NAMED 1908-08-02 12:00:00 NR -34.2000 148.900 main 0 0 __________O___ -1 -34.2000 148.900 7 13 93
1908214S30142 1909 28 SP EA NOT_NAMED 1908-08-02 15:00:00 NR -34.2019 149.683 main 0 0 __________P___ -1 -34.2019 149.683 7 13 88
1908214S30142 1909 28 SP EA NOT_NAMED 1908-08-02 18:00:00 NR -34.1501 150.493 main 0 0 __________P___ -1 -34.1501 150.493 7 14 85
1908214S30142 1909 28 SP EA NOT_NAMED 1908-08-02 21:00:00 NR -34.0733 151.332 main 11 11 __________P___ -1 -34.0733 151.332 7 14 84
1908214S30142 1909 28 SP EA NOT_NAMED 1908-08-03 00:00:00 NR -34.0000 152.200 main 82 82 __________O___ -1 -34.0000 152.200 7 15 85
1908214S30142 1909 28 SP EA NOT_NAMED 1908-08-03 03:00:00 NR -33.9501 153.089 main 157 153 __________P___ -1 -33.9501 153.089 7 15 87
1908214S30142 1909 28 SP EA NOT_NAMED 1908-08-03 06:00:00 NR -33.9104 154.007 main 213 213 __________P___ -1 -33.9104 154.007 7 15 88
1908214S30142 1909 28 SP EA NOT_NAMED 1908-08-03 09:00:00 NR -33.8904 154.946 main 278 278 __________P___ -1 -33.8904 154.946 7 16 90
1908214S30142 1909 28 SP EA NOT_NAMED 1908-08-03 12:00:00 NR -33.9000 155.900 main 357 357 __________O___ -1 -33.9000 155.900 7 16 92
1908214S30142 1909 28 SP EA NOT_NAMED 1908-08-03 15:00:00 NR -33.9454 156.864 main 441 441 __________P___ -1 -33.9454 156.864 7 16 94
1908214S30142 1909 28 SP EA NOT_NAMED 1908-08-03 18:00:00 NR -34.0185 157.837 main 523 523 __________P___ -1 -34.0185 157.837 7 16 96
1908214S30142 1909 28 SP EA NOT_NAMED 1908-08-03 21:00:00 NR -34.1073 158.816 main 614 614 __________P___ -1 -34.1073 158.816 7 16 96
1908214S30142 1909 28 SP EA NOT_NAMED 1908-08-04 00:00:00 NR -34.2000 159.800 main 704 __________O___ -1 -34.2000 159.800 7 16 97

Digital Typhoon Data and Search

About IBTrACS Database

This database is a web-friendly format of International Best Track Archive for Climate Stewardship (IBTrACS), a global best track data archive curated by NOAA dating back to 1842.

Updated: 2021-12-03